Marfa, Texas
Current Conditions -  °F | °C
As of 4:55 PM on Wednesday 26 Nov 2014 (Local Time) from KMRF Reporting Station
Clear Clear  
Wind Chill: 63°   Ceiling: Unl
Heat Index: 63°   Visibility: 10mi
Dew Point: 18°   Wind: 13mph
Humidity: 18%   Direction: 270°W
Pressure: 30.29"   Gusts: 17mph
Location:  30.31°N, 104.02°W
Report Text: KMRF 262255Z AUTO 27011G15KT 10SM CLR 17/M08 A3029 RMK AO1
Loading
Personal Weather Stations






























Interactive Weather Map New forecast layout! Learn more

10-Day Weather Forecast

Advertisements
Track Severe Weather on mobile